CheckWX is a tool to help pilots better visualize weather data.  It is not intended as a substitute for an official pre-flight weather briefing.

20:58:47 UTC

KGOV METAR
Grayling AAF Airport
Grayling, Michigan, USA
Current

1 hour ago

KGOV 231958Z AUTO 31015G20KT 9SM M 05/03 A2990 RMK AO2 SLP135 T00480027 $
Observed
Apr-23 @ 19:58 UTC
Wind
  • 310° at 15 KTS
  • Gusting to 20 KTS
Visibility
9 SM
Temperature
C / 41°F
Dewpoint
C / 37°F
Humidity
87%
Altimeter
29.9" Hg
Pressure
1012.52 hPa
Previous

2 hours ago

KGOV 231858Z AUTO 30010KT 9SM M 04/03 A2989 RMK AO2 LTG DSNT SE SLP132 T00370031 $
Observed
Apr-23 @ 18:58 UTC
Wind
  • 300° at 10 KTS
Visibility
9 SM
Temperature
C / 39°F
Dewpoint
C / 37°F
Humidity
93%
Altimeter
29.89" Hg
Pressure
1012.22 hPa
Previous

3 hours ago

KGOV 231758Z AUTO 31008G17KT 9SM M 04/03 A2986 RMK AO2 SLP123 60002 T00350031 10107 20034 52020 $
Observed
Apr-23 @ 17:58 UTC
Wind
  • 310° at 8 KTS
  • Gusting to 17 KTS
Visibility
9 SM
Temperature
C / 39°F
Dewpoint
C / 37°F
Humidity
93%
Altimeter
29.86" Hg
Pressure
1011.22 hPa